createdAt,value
2022-10-11T00:06:37.647Z,11.70
2022-10-11T00:11:31.759Z,11.60
2022-10-11T00:16:25.384Z,11.70
2022-10-11T00:23:49.249Z,11.40
2022-10-11T00:31:11.537Z,11.20
2022-10-11T00:36:06.064Z,11.20
2022-10-11T00:38:33.393Z,11.00
2022-10-11T00:41:00.917Z,11.00
2022-10-11T00:43:30.535Z,10.90
2022-10-11T00:46:24.046Z,10.80
2022-10-11T00:48:56.455Z,10.80
2022-10-11T00:51:32.712Z,10.80
2022-10-11T00:54:01.251Z,10.70
2022-10-11T00:56:32.463Z,10.70
2022-10-11T00:59:02.139Z,10.60
2022-10-11T01:06:23.278Z,10.40
2022-10-11T01:08:51.669Z,10.30
2022-10-11T01:11:23.506Z,10.50
2022-10-11T01:14:06.234Z,10.30
2022-10-11T01:16:37.678Z,10.40
2022-10-11T01:19:19.789Z,10.30
2022-10-11T01:21:52.401Z,10.30
2022-10-11T01:24:48.592Z,10.50
2022-10-11T01:27:30.479Z,10.30
2022-10-11T01:30:07.206Z,10.30
2022-10-11T01:32:40.539Z,10.20
2022-10-11T01:35:14.045Z,10.20
2022-10-11T01:37:44.366Z,10.20
2022-10-11T01:40:15.314Z,10.40
2022-10-11T01:42:43.420Z,10.10
2022-10-11T01:45:14.760Z,10.10
2022-10-11T01:50:37.702Z,10.10
2022-10-11T01:53:25.176Z,10.10
2022-10-11T01:55:57.410Z,10.10
2022-10-11T01:58:33.985Z,10.00
2022-10-11T02:01:09.025Z,10.00
2022-10-11T02:03:44.025Z,9.80
2022-10-11T02:06:13.456Z,10.00
2022-10-11T02:08:49.162Z,10.00
2022-10-11T02:11:22.448Z,9.70
2022-10-11T02:13:54.452Z,9.90
2022-10-11T02:16:28.181Z,9.80
2022-10-11T02:18:57.427Z,9.90
2022-10-11T02:21:25.741Z,9.80
2022-10-11T02:23:56.859Z,9.80
2022-10-11T02:26:27.335Z,9.90
2022-10-11T02:28:57.741Z,9.70
2022-10-11T02:31:25.487Z,9.70
2022-10-11T02:34:00.267Z,9.60
2022-10-11T02:36:41.710Z,9.50
2022-10-11T02:39:16.376Z,9.50
2022-10-11T02:44:14.311Z,9.40
2022-10-11T02:46:43.242Z,9.40
2022-10-11T02:49:11.580Z,9.40
2022-10-11T02:51:39.050Z,9.30
2022-10-11T02:54:06.163Z,9.30
2022-10-11T03:06:21.135Z,9.30
2022-10-11T03:18:35.916Z,8.90
2022-10-11T03:23:32.319Z,9.00
2022-10-11T03:25:58.909Z,9.00
2022-10-11T03:35:47.660Z,9.00
2022-10-11T03:38:16.502Z,8.90
2022-10-11T03:40:44.016Z,9.00
2022-10-11T03:43:11.040Z,9.00
2022-10-11T03:45:37.945Z,8.90
2022-10-11T03:48:05.635Z,8.90
2022-10-11T03:57:53.491Z,8.80
2022-10-11T04:00:20.272Z,8.80
2022-10-11T04:10:08.486Z,8.30
2022-10-11T04:15:02.781Z,8.80
2022-10-11T04:24:50.256Z,8.60
2022-10-11T04:32:11.703Z,8.60
2022-10-11T04:41:59.439Z,8.60
2022-10-11T04:44:26.124Z,8.50
2022-10-11T04:49:20.821Z,8.40
2022-10-11T04:56:41.583Z,8.60
2022-10-11T05:04:02.837Z,8.40
2022-10-11T05:06:30.051Z,8.30
2022-10-11T05:08:56.797Z,8.50
2022-10-11T05:18:45.004Z,8.70
2022-10-11T05:21:16.917Z,8.50
2022-10-11T05:23:44.759Z,8.60
2022-10-11T05:26:11.729Z,8.60
2022-10-11T05:40:54.728Z,8.80
2022-10-11T05:43:21.372Z,8.60
2022-10-11T05:55:36.709Z,8.80
2022-10-11T05:58:04.554Z,9.20
2022-10-11T06:00:31.546Z,9.10
2022-10-11T06:02:58.312Z,9.20
2022-10-11T06:15:15.015Z,9.50
2022-10-11T06:20:09.691Z,9.60
2022-10-11T06:25:03.669Z,9.80
2022-10-11T06:29:57.379Z,9.80
2022-10-11T06:32:24.664Z,10.00
2022-10-11T06:37:18.735Z,9.90
2022-10-11T06:42:12.696Z,10.20
2022-10-11T06:47:08.526Z,10.30
2022-10-11T06:49:35.985Z,7.30
2022-10-11T07:01:51.377Z,10.70
2022-10-11T07:06:45.775Z,10.70
2022-10-11T07:14:07.252Z,11.10
2022-10-11T07:16:35.738Z,11.30
2022-10-11T07:19:04.410Z,11.50
2022-10-11T07:21:33.582Z,11.60
2022-10-11T07:24:01.289Z,11.70
2022-10-11T07:31:24.712Z,12.10
2022-10-11T07:38:46.800Z,13.50
2022-10-11T07:41:14.605Z,14.40
2022-10-11T07:46:10.864Z,14.70
2022-10-11T07:51:07.027Z,14.50
2022-10-11T07:53:39.280Z,14.40
2022-10-11T07:56:07.325Z,14.30
2022-10-11T07:58:35.494Z,14.30
2022-10-11T08:03:30.365Z,14.40
2022-10-11T08:06:00.846Z,14.50
2022-10-11T08:15:50.103Z,15.00
2022-10-11T08:32:59.982Z,25.80
2022-10-11T08:40:21.848Z,28.50
2022-10-11T08:42:57.240Z,28.80
2022-10-11T08:45:29.958Z,28.80
2022-10-11T08:48:09.609Z,29.40
2022-10-11T08:50:38.095Z,29.90
2022-10-11T08:53:14.281Z,30.00
2022-10-11T08:55:46.685Z,29.80
2022-10-11T08:58:17.318Z,31.00
2022-10-11T09:00:45.938Z,30.80
2022-10-11T09:03:28.223Z,31.60
2022-10-11T09:06:07.399Z,31.70
2022-10-11T09:08:46.158Z,32.60
2022-10-11T09:11:22.524Z,33.00
2022-10-11T09:14:14.995Z,33.50
2022-10-11T09:16:57.387Z,33.80
2022-10-11T09:19:39.352Z,33.70
2022-10-11T09:22:17.053Z,33.30
2022-10-11T09:24:57.164Z,32.40
2022-10-11T09:27:57.835Z,32.20
2022-10-11T09:30:21.222Z,33.30
2022-10-11T09:33:02.472Z,33.00
2022-10-11T09:35:35.613Z,33.20
2022-10-11T09:38:07.483Z,32.50
2022-10-11T09:40:52.359Z,32.10
2022-10-11T09:48:21.315Z,32.30
2022-10-11T09:50:50.181Z,32.80
2022-10-11T09:53:16.813Z,30.50
2022-10-11T09:55:51.053Z,32.70
2022-10-11T09:58:31.882Z,33.10
2022-10-11T10:01:07.381Z,32.70
2022-10-11T10:03:36.006Z,32.70
2022-10-11T10:06:17.605Z,33.60
2022-10-11T10:13:44.600Z,32.70
2022-10-11T10:16:26.371Z,32.60
2022-10-11T10:18:56.312Z,32.90
2022-10-11T10:21:32.919Z,32.10
2022-10-11T10:24:03.995Z,31.20
2022-10-11T10:26:38.391Z,31.40
2022-10-11T10:29:15.939Z,31.70
2022-10-11T10:32:13.422Z,32.20
2022-10-11T10:34:53.909Z,31.90
2022-10-11T10:37:28.173Z,32.20
2022-10-11T10:40:01.450Z,32.10
2022-10-11T10:42:28.702Z,32.00
2022-10-11T10:44:57.902Z,31.60
2022-10-11T10:47:49.271Z,31.90
2022-10-11T10:50:21.505Z,30.60
2022-10-11T10:53:01.902Z,30.90
2022-10-11T10:55:36.326Z,31.50
2022-10-11T10:58:09.021Z,30.20
2022-10-11T11:00:42.942Z,29.50
2022-10-11T11:06:05.868Z,27.20
2022-10-11T11:08:51.072Z,27.70
2022-10-11T11:11:37.544Z,28.10
2022-10-11T11:14:11.634Z,26.30
2022-10-11T11:16:43.981Z,25.20
2022-10-11T11:19:20.384Z,24.60
2022-10-11T11:21:56.880Z,24.90
2022-10-11T11:24:35.038Z,24.60
2022-10-11T11:27:06.556Z,23.80
2022-10-11T11:29:47.405Z,22.80
2022-10-11T11:32:23.261Z,23.00
2022-10-11T11:34:53.876Z,24.00
2022-10-11T11:37:25.824Z,25.20
2022-10-11T11:39:57.231Z,25.70
2022-10-11T11:42:30.679Z,27.00
2022-10-11T11:45:04.492Z,28.00
2022-10-11T11:47:35.429Z,27.40
2022-10-11T11:50:18.419Z,26.10
2022-10-11T11:52:50.068Z,25.40
2022-10-11T11:55:21.100Z,23.90
2022-10-11T11:58:02.091Z,22.90
2022-10-11T12:00:40.318Z,21.90
2022-10-11T12:03:16.136Z,21.20
2022-10-11T12:06:21.898Z,20.20
2022-10-11T12:09:02.117Z,19.80
2022-10-11T12:11:39.790Z,19.30
2022-10-11T12:14:26.796Z,19.00
2022-10-11T12:17:21.136Z,18.80
2022-10-11T12:20:13.796Z,18.60
2022-10-11T12:22:53.746Z,18.60
2022-10-11T12:25:43.690Z,18.90
2022-10-11T12:28:48.412Z,18.30
2022-10-11T12:31:26.763Z,17.70
2022-10-11T12:34:32.409Z,17.90
2022-10-11T12:39:50.770Z,17.10
2022-10-11T12:42:29.768Z,17.50
2022-10-11T12:45:29.804Z,17.30
2022-10-11T12:48:11.802Z,17.30
2022-10-11T12:50:50.584Z,17.30
2022-10-11T12:53:41.084Z,17.40
2022-10-11T12:56:12.055Z,17.60
2022-10-11T12:58:40.864Z,17.40
2022-10-11T13:01:22.847Z,17.30
2022-10-11T13:04:02.913Z,17.20
2022-10-11T13:06:33.483Z,17.00
2022-10-11T13:09:04.848Z,16.90
2022-10-11T13:14:34.401Z,16.80
2022-10-11T13:17:13.662Z,16.80
2022-10-11T13:22:23.193Z,16.90
2022-10-11T13:27:20.871Z,16.90
2022-10-11T13:29:53.117Z,17.00
2022-10-11T13:32:23.633Z,16.90
2022-10-11T13:37:28.123Z,16.50
2022-10-11T13:39:56.294Z,16.50
2022-10-11T13:42:27.925Z,16.30
2022-10-11T13:44:55.505Z,16.30
2022-10-11T13:47:27.251Z,16.50
2022-10-11T13:50:16.315Z,16.00
2022-10-11T13:53:04.908Z,16.00
2022-10-11T13:55:35.003Z,15.90
2022-10-11T13:58:08.684Z,15.80
2022-10-11T14:00:38.222Z,15.70
2022-10-11T14:03:16.955Z,15.70
2022-10-11T14:05:51.457Z,15.60
2022-10-11T14:08:23.725Z,15.60
2022-10-11T14:13:31.125Z,15.40
2022-10-11T14:16:04.347Z,15.40
2022-10-11T14:18:41.086Z,15.30
2022-10-11T14:21:50.444Z,15.20
2022-10-11T14:24:18.697Z,15.20
2022-10-11T14:26:47.859Z,15.00
2022-10-11T14:29:20.586Z,15.00
2022-10-11T14:34:18.563Z,14.80
2022-10-11T14:39:15.894Z,14.80
2022-10-11T14:49:13.447Z,14.90
2022-10-11T14:54:09.453Z,14.60
2022-10-11T15:06:28.677Z,14.40
2022-10-11T15:08:56.241Z,14.40
2022-10-11T15:11:23.842Z,14.40
2022-10-11T15:13:53.299Z,14.30
2022-10-11T15:16:20.753Z,14.30
2022-10-11T15:18:50.854Z,14.20
2022-10-11T15:21:19.655Z,14.20
2022-10-11T15:26:22.759Z,14.20
2022-10-11T15:28:51.552Z,14.10
2022-10-11T15:31:18.526Z,14.10
2022-10-11T15:36:15.414Z,13.90
2022-10-11T15:41:12.192Z,13.80
2022-10-11T15:43:39.552Z,13.80
2022-10-11T15:46:06.553Z,13.80
2022-10-11T15:53:31.760Z,13.60
2022-10-11T15:56:01.037Z,13.50
2022-10-11T15:58:34.183Z,13.50
2022-10-11T16:01:08.196Z,13.30
2022-10-11T16:03:35.529Z,13.20
2022-10-11T16:06:05.551Z,13.20
2022-10-11T16:18:24.970Z,12.80
2022-10-11T16:30:42.565Z,11.60
2022-10-11T16:35:41.144Z,12.00
2022-10-11T16:43:07.634Z,11.90
2022-10-11T16:45:35.621Z,11.70
2022-10-11T16:48:03.505Z,11.60
2022-10-11T16:50:34.342Z,11.50
2022-10-11T16:53:04.845Z,11.40
2022-10-11T17:00:30.141Z,11.00
2022-10-11T17:10:38.644Z,10.90
2022-10-11T17:25:27.545Z,10.50
2022-10-11T17:27:56.791Z,10.40
2022-10-11T17:40:16.256Z,9.90
2022-10-11T17:50:05.816Z,9.90
2022-10-11T17:57:28.317Z,9.80
2022-10-11T18:09:44.237Z,9.80
2022-10-11T18:12:14.397Z,9.00
2022-10-11T18:14:48.044Z,9.50
2022-10-11T18:19:46.087Z,9.40
2022-10-11T18:39:46.095Z,9.00
2022-10-11T18:42:13.700Z,9.00
2022-10-11T18:44:40.929Z,9.00
2022-10-11T18:49:37.227Z,8.90
2022-10-11T18:59:25.829Z,9.10
2022-10-11T19:06:49.992Z,8.80
2022-10-11T19:09:20.900Z,8.70
2022-10-11T19:14:20.847Z,8.80
2022-10-11T19:16:50.799Z,8.50
2022-10-11T19:19:19.485Z,8.70
2022-10-11T19:24:17.420Z,8.60
2022-10-11T19:29:15.081Z,8.50
2022-10-11T19:31:44.863Z,8.50
2022-10-11T19:36:42.124Z,8.30
2022-10-11T19:39:12.102Z,8.10
2022-10-11T19:41:45.621Z,8.30
2022-10-11T19:44:13.583Z,8.50
2022-10-11T19:49:25.939Z,8.30
2022-10-11T19:51:54.445Z,8.40
2022-10-11T19:56:50.844Z,8.10
2022-10-11T20:04:40.047Z,8.00
2022-10-11T20:09:33.533Z,8.20
2022-10-11T20:12:01.280Z,8.00
2022-10-11T20:16:55.631Z,8.30
2022-10-11T20:24:26.635Z,8.00
2022-10-11T20:29:27.129Z,7.90
2022-10-11T20:36:49.599Z,7.70
2022-10-11T20:46:39.838Z,7.60
2022-10-11T20:49:11.549Z,7.50
2022-10-11T20:51:40.733Z,7.60
2022-10-11T20:56:34.913Z,7.30
2022-10-11T20:59:04.947Z,7.40
2022-10-11T21:01:33.989Z,7.50
2022-10-11T21:04:02.520Z,7.40
2022-10-11T21:06:30.776Z,7.40
2022-10-11T21:11:26.507Z,7.70
2022-10-11T21:13:55.991Z,7.20
2022-10-11T21:18:51.011Z,7.40
2022-10-11T21:26:17.586Z,7.30
2022-10-11T21:28:45.896Z,7.50
2022-10-11T21:31:14.834Z,7.20
2022-10-11T21:33:42.811Z,7.10
2022-10-11T21:36:14.629Z,7.10
2022-10-11T21:38:42.014Z,7.10
2022-10-11T21:41:11.095Z,7.10
2022-10-11T21:43:39.267Z,7.10
2022-10-11T21:46:10.283Z,7.10
2022-10-11T21:48:36.932Z,7.10
2022-10-11T21:53:30.813Z,7.00
2022-10-11T21:55:58.361Z,7.10
2022-10-11T21:58:25.039Z,7.10
2022-10-11T22:00:52.567Z,7.10
2022-10-11T22:05:46.951Z,7.00
2022-10-11T22:08:14.589Z,7.00
2022-10-11T22:10:43.758Z,7.00
2022-10-11T22:13:12.500Z,7.00
2022-10-11T22:15:40.256Z,7.20
2022-10-11T22:20:34.086Z,6.80
2022-10-11T22:23:00.724Z,7.00
2022-10-11T22:27:55.285Z,6.90
2022-10-11T22:32:50.687Z,6.80
2022-10-11T22:40:11.830Z,6.60
2022-10-11T22:45:06.023Z,6.70
2022-10-11T22:47:33.461Z,6.60
2022-10-11T22:50:00.718Z,6.70
2022-10-11T22:54:56.064Z,6.60
2022-10-11T22:57:22.734Z,7.10
2022-10-11T23:12:05.088Z,6.20
2022-10-11T23:16:59.038Z,6.40
2022-10-11T23:21:53.211Z,6.40
2022-10-11T23:24:19.793Z,6.40
2022-10-11T23:36:34.682Z,6.40
2022-10-11T23:39:01.912Z,6.20
2022-10-11T23:41:29.409Z,6.20
2022-10-11T23:43:57.355Z,6.10
2022-10-11T23:46:24.566Z,6.30
2022-10-11T23:56:12.790Z,6.20
